sensor_id;sensor_type;location;lat;lon;timestamp;P1;durP1;ratioP1;P2;durP2;ratioP2
45274;SDS011;31019;43.780;25.948;2023-06-10T00:00:03;43.42;;;39.38;;
45274;SDS011;31019;43.780;25.948;2023-06-10T00:02:32;41.55;;;37.42;;
45274;SDS011;31019;43.780;25.948;2023-06-10T00:04:59;41.80;;;37.80;;
45274;SDS011;31019;43.780;25.948;2023-06-10T00:07:25;40.50;;;36.60;;
45274;SDS011;31019;43.780;25.948;2023-06-10T00:09:52;41.50;;;37.60;;
45274;SDS011;31019;43.780;25.948;2023-06-10T00:12:20;43.33;;;39.03;;
45274;SDS011;31019;43.780;25.948;2023-06-10T00:14:47;44.13;;;39.88;;
45274;SDS011;31019;43.780;25.948;2023-06-10T00:17:25;42.33;;;38.42;;
45274;SDS011;31019;43.780;25.948;2023-06-10T00:20:00;44.42;;;40.33;;
45274;SDS011;31019;43.780;25.948;2023-06-10T00:22:30;40.60;;;36.60;;
45274;SDS011;31019;43.780;25.948;2023-06-10T00:24:57;43.08;;;39.13;;
45274;SDS011;31019;43.780;25.948;2023-06-10T00:27:24;40.42;;;36.53;;
45274;SDS011;31019;43.780;25.948;2023-06-10T00:29:56;43.30;;;39.10;;
45274;SDS011;31019;43.780;25.948;2023-06-10T00:32:31;43.15;;;38.95;;
45274;SDS011;31019;43.780;25.948;2023-06-10T00:34:58;44.60;;;40.33;;
45274;SDS011;31019;43.780;25.948;2023-06-10T00:37:25;49.95;;;45.20;;
45274;SDS011;31019;43.780;25.948;2023-06-10T00:39:54;49.65;;;45.15;;
45274;SDS011;31019;43.780;25.948;2023-06-10T00:42:26;48.78;;;44.20;;
45274;SDS011;31019;43.780;25.948;2023-06-10T00:44:53;47.38;;;43.17;;
45274;SDS011;31019;43.780;25.948;2023-06-10T00:47:21;45.80;;;41.67;;
45274;SDS011;31019;43.780;25.948;2023-06-10T00:49:50;45.88;;;41.45;;
45274;SDS011;31019;43.780;25.948;2023-06-10T00:52:18;45.15;;;40.97;;
45274;SDS011;31019;43.780;25.948;2023-06-10T00:54:48;43.80;;;39.50;;
45274;SDS011;31019;43.780;25.948;2023-06-10T00:57:15;40.88;;;36.97;;
45274;SDS011;31019;43.780;25.948;2023-06-10T00:59:43;41.65;;;38.08;;
45274;SDS011;31019;43.780;25.948;2023-06-10T01:02:15;45.40;;;41.40;;
45274;SDS011;31019;43.780;25.948;2023-06-10T01:04:44;41.15;;;37.30;;
45274;SDS011;31019;43.780;25.948;2023-06-10T01:07:14;41.80;;;37.70;;
45274;SDS011;31019;43.780;25.948;2023-06-10T01:12:55;41.95;;;38.08;;
45274;SDS011;31019;43.780;25.948;2023-06-10T01:15:27;41.70;;;38.00;;
45274;SDS011;31019;43.780;25.948;2023-06-10T01:17:55;42.03;;;38.33;;
45274;SDS011;31019;43.780;25.948;2023-06-10T01:20:24;47.88;;;43.55;;
45274;SDS011;31019;43.780;25.948;2023-06-10T01:22:54;46.20;;;41.80;;
45274;SDS011;31019;43.780;25.948;2023-06-10T01:25:23;46.33;;;42.03;;
45274;SDS011;31019;43.780;25.948;2023-06-10T01:27:53;48.20;;;43.63;;
45274;SDS011;31019;43.780;25.948;2023-06-10T01:30:26;46.45;;;41.95;;
45274;SDS011;31019;43.780;25.948;2023-06-10T01:33:01;45.38;;;41.08;;
45274;SDS011;31019;43.780;25.948;2023-06-10T01:35:31;47.53;;;43.05;;
45274;SDS011;31019;43.780;25.948;2023-06-10T01:37:59;45.60;;;41.25;;
45274;SDS011;31019;43.780;25.948;2023-06-10T01:40:30;46.92;;;42.35;;
45274;SDS011;31019;43.780;25.948;2023-06-10T01:43:00;45.45;;;41.35;;
45274;SDS011;31019;43.780;25.948;2023-06-10T01:45:28;47.90;;;43.53;;
45274;SDS011;31019;43.780;25.948;2023-06-10T01:47:55;45.17;;;40.78;;
45274;SDS011;31019;43.780;25.948;2023-06-10T01:52:56;42.45;;;38.45;;
45274;SDS011;31019;43.780;25.948;2023-06-10T01:55:25;45.03;;;40.83;;
45274;SDS011;31019;43.780;25.948;2023-06-10T01:57:52;41.83;;;37.55;;
45274;SDS011;31019;43.780;25.948;2023-06-10T02:03:14;50.17;;;45.53;;
45274;SDS011;31019;43.780;25.948;2023-06-10T02:05:41;41.47;;;37.45;;
45274;SDS011;31019;43.780;25.948;2023-06-10T02:08:16;45.65;;;41.30;;
45274;SDS011;31019;43.780;25.948;2023-06-10T02:10:44;47.95;;;43.53;;
45274;SDS011;31019;43.780;25.948;2023-06-10T02:13:18;48.17;;;43.58;;
45274;SDS011;31019;43.780;25.948;2023-06-10T02:15:45;48.72;;;44.33;;
45274;SDS011;31019;43.780;25.948;2023-06-10T02:18:12;44.40;;;40.00;;
45274;SDS011;31019;43.780;25.948;2023-06-10T02:20:38;47.75;;;43.25;;
45274;SDS011;31019;43.780;25.948;2023-06-10T02:23:05;50.90;;;45.95;;
45274;SDS011;31019;43.780;25.948;2023-06-10T02:28:20;43.58;;;39.30;;
45274;SDS011;31019;43.780;25.948;2023-06-10T02:30:47;43.10;;;38.80;;
45274;SDS011;31019;43.780;25.948;2023-06-10T02:33:14;41.40;;;37.30;;
45274;SDS011;31019;43.780;25.948;2023-06-10T02:35:44;38.55;;;34.67;;
45274;SDS011;31019;43.780;25.948;2023-06-10T02:38:11;40.40;;;36.47;;
45274;SDS011;31019;43.780;25.948;2023-06-10T02:40:55;38.22;;;34.65;;
45274;SDS011;31019;43.780;25.948;2023-06-10T02:43:22;37.45;;;34.03;;
45274;SDS011;31019;43.780;25.948;2023-06-10T02:45:49;38.28;;;34.72;;
45274;SDS011;31019;43.780;25.948;2023-06-10T02:48:16;36.85;;;33.35;;
45274;SDS011;31019;43.780;25.948;2023-06-10T02:50:43;39.17;;;35.65;;
45274;SDS011;31019;43.780;25.948;2023-06-10T02:53:10;40.25;;;36.30;;
45274;SDS011;31019;43.780;25.948;2023-06-10T02:55:42;40.92;;;37.00;;
45274;SDS011;31019;43.780;25.948;2023-06-10T02:58:10;41.38;;;37.33;;
45274;SDS011;31019;43.780;25.948;2023-06-10T03:00:37;42.00;;;38.00;;
45274;SDS011;31019;43.780;25.948;2023-06-10T03:03:05;44.08;;;40.00;;
45274;SDS011;31019;43.780;25.948;2023-06-10T03:05:33;41.65;;;37.65;;
45274;SDS011;31019;43.780;25.948;2023-06-10T03:08:11;43.88;;;39.88;;
45274;SDS011;31019;43.780;25.948;2023-06-10T03:10:38;45.47;;;41.50;;
45274;SDS011;31019;43.780;25.948;2023-06-10T03:13:17;43.53;;;39.65;;
45274;SDS011;31019;43.780;25.948;2023-06-10T03:15:44;43.50;;;39.78;;
45274;SDS011;31019;43.780;25.948;2023-06-10T03:18:12;44.83;;;40.05;;
45274;SDS011;31019;43.780;25.948;2023-06-10T03:20:38;42.60;;;39.05;;
45274;SDS011;31019;43.780;25.948;2023-06-10T03:23:05;39.47;;;36.17;;
45274;SDS011;31019;43.780;25.948;2023-06-10T03:25:32;40.85;;;37.55;;
45274;SDS011;31019;43.780;25.948;2023-06-10T03:27:59;41.90;;;38.10;;
45274;SDS011;31019;43.780;25.948;2023-06-10T03:33:04;40.75;;;37.05;;
45274;SDS011;31019;43.780;25.948;2023-06-10T03:35:31;38.90;;;35.40;;
45274;SDS011;31019;43.780;25.948;2023-06-10T03:38:00;36.85;;;33.58;;
45274;SDS011;31019;43.780;25.948;2023-06-10T03:40:26;37.47;;;34.17;;
45274;SDS011;31019;43.780;25.948;2023-06-10T03:42:55;38.17;;;34.67;;
45274;SDS011;31019;43.780;25.948;2023-06-10T03:45:22;38.60;;;35.13;;
45274;SDS011;31019;43.780;25.948;2023-06-10T03:47:51;39.45;;;36.13;;
45274;SDS011;31019;43.780;25.948;2023-06-10T03:50:20;37.83;;;34.35;;
45274;SDS011;31019;43.780;25.948;2023-06-10T03:52:48;38.13;;;34.83;;
45274;SDS011;31019;43.780;25.948;2023-06-10T03:55:15;45.65;;;41.88;;
45274;SDS011;31019;43.780;25.948;2023-06-10T03:57:43;39.78;;;36.22;;
45274;SDS011;31019;43.780;25.948;2023-06-10T04:00:10;39.78;;;36.47;;
45274;SDS011;31019;43.780;25.948;2023-06-10T04:02:38;38.03;;;34.58;;
45274;SDS011;31019;43.780;25.948;2023-06-10T04:05:12;36.28;;;32.78;;
45274;SDS011;31019;43.780;25.948;2023-06-10T04:07:39;38.28;;;35.08;;
45274;SDS011;31019;43.780;25.948;2023-06-10T04:10:17;36.95;;;33.42;;
45274;SDS011;31019;43.780;25.948;2023-06-10T04:12:54;36.08;;;33.08;;
45274;SDS011;31019;43.780;25.948;2023-06-10T04:15:22;36.30;;;33.05;;
45274;SDS011;31019;43.780;25.948;2023-06-10T04:17:48;36.40;;;33.22;;
45274;SDS011;31019;43.780;25.948;2023-06-10T04:20:17;37.03;;;33.92;;
45274;SDS011;31019;43.780;25.948;2023-06-10T04:22:44;37.88;;;34.47;;
45274;SDS011;31019;43.780;25.948;2023-06-10T04:25:10;37.55;;;34.35;;
45274;SDS011;31019;43.780;25.948;2023-06-10T04:27:40;39.40;;;36.00;;
45274;SDS011;31019;43.780;25.948;2023-06-10T04:30:07;39.25;;;35.58;;
45274;SDS011;31019;43.780;25.948;2023-06-10T04:32:35;34.90;;;32.00;;
45274;SDS011;31019;43.780;25.948;2023-06-10T04:35:02;38.88;;;35.55;;
45274;SDS011;31019;43.780;25.948;2023-06-10T04:37:30;37.33;;;34.35;;
45274;SDS011;31019;43.780;25.948;2023-06-10T04:39:57;35.85;;;32.45;;
45274;SDS011;31019;43.780;25.948;2023-06-10T04:42:24;33.80;;;30.90;;
45274;SDS011;31019;43.780;25.948;2023-06-10T04:44:51;31.90;;;29.30;;
45274;SDS011;31019;43.780;25.948;2023-06-10T04:47:18;33.53;;;30.63;;
45274;SDS011;31019;43.780;25.948;2023-06-10T04:49:45;36.95;;;33.25;;
45274;SDS011;31019;43.780;25.948;2023-06-10T04:52:12;39.20;;;35.90;;
45274;SDS011;31019;43.780;25.948;2023-06-10T04:54:40;37.40;;;34.08;;
45274;SDS011;31019;43.780;25.948;2023-06-10T04:57:19;35.25;;;32.10;;
45274;SDS011;31019;43.780;25.948;2023-06-10T04:59:47;35.83;;;32.67;;
45274;SDS011;31019;43.780;25.948;2023-06-10T05:02:15;33.67;;;30.77;;
45274;SDS011;31019;43.780;25.948;2023-06-10T05:04:42;32.42;;;29.70;;
45274;SDS011;31019;43.780;25.948;2023-06-10T05:07:10;30.02;;;27.52;;
45274;SDS011;31019;43.780;25.948;2023-06-10T05:09:37;30.25;;;27.52;;
45274;SDS011;31019;43.780;25.948;2023-06-10T05:12:12;33.03;;;29.65;;
45274;SDS011;31019;43.780;25.948;2023-06-10T05:14:52;34.50;;;31.15;;
45274;SDS011;31019;43.780;25.948;2023-06-10T05:17:19;32.88;;;30.00;;
45274;SDS011;31019;43.780;25.948;2023-06-10T05:19:45;31.48;;;28.73;;
45274;SDS011;31019;43.780;25.948;2023-06-10T05:22:12;30.85;;;27.85;;
45274;SDS011;31019;43.780;25.948;2023-06-10T05:24:41;31.92;;;29.13;;
45274;SDS011;31019;43.780;25.948;2023-06-10T05:27:09;33.45;;;30.52;;
45274;SDS011;31019;43.780;25.948;2023-06-10T05:29:44;33.75;;;30.80;;
45274;SDS011;31019;43.780;25.948;2023-06-10T05:32:11;29.90;;;27.55;;
45274;SDS011;31019;43.780;25.948;2023-06-10T05:34:38;30.13;;;27.42;;
45274;SDS011;31019;43.780;25.948;2023-06-10T05:37:05;29.75;;;27.02;;
45274;SDS011;31019;43.780;25.948;2023-06-10T05:39:32;29.10;;;26.25;;
45274;SDS011;31019;43.780;25.948;2023-06-10T05:42:02;29.13;;;26.63;;
45274;SDS011;31019;43.780;25.948;2023-06-10T05:44:30;29.08;;;26.80;;
45274;SDS011;31019;43.780;25.948;2023-06-10T05:46:58;31.30;;;28.67;;
45274;SDS011;31019;43.780;25.948;2023-06-10T05:49:36;28.38;;;25.67;;
45274;SDS011;31019;43.780;25.948;2023-06-10T05:52:14;29.80;;;27.17;;
45274;SDS011;31019;43.780;25.948;2023-06-10T05:54:43;30.10;;;27.40;;
45274;SDS011;31019;43.780;25.948;2023-06-10T05:57:10;27.90;;;25.38;;
45274;SDS011;31019;43.780;25.948;2023-06-10T05:59:37;29.98;;;27.35;;
45274;SDS011;31019;43.780;25.948;2023-06-10T06:02:06;29.48;;;26.95;;
45274;SDS011;31019;43.780;25.948;2023-06-10T06:04:33;27.30;;;24.90;;
45274;SDS011;31019;43.780;25.948;2023-06-10T06:07:11;27.33;;;25.02;;
45274;SDS011;31019;43.780;25.948;2023-06-10T06:09:38;24.38;;;22.17;;
45274;SDS011;31019;43.780;25.948;2023-06-10T06:12:05;25.63;;;23.27;;
45274;SDS011;31019;43.780;25.948;2023-06-10T06:14:36;25.02;;;22.92;;
45274;SDS011;31019;43.780;25.948;2023-06-10T06:17:07;24.52;;;22.30;;
45274;SDS011;31019;43.780;25.948;2023-06-10T06:19:36;25.67;;;23.60;;
45274;SDS011;31019;43.780;25.948;2023-06-10T06:22:12;27.05;;;24.85;;
45274;SDS011;31019;43.780;25.948;2023-06-10T06:24:38;23.23;;;21.33;;
45274;SDS011;31019;43.780;25.948;2023-06-10T06:27:05;23.58;;;21.55;;
45274;SDS011;31019;43.780;25.948;2023-06-10T06:32:09;21.70;;;19.65;;
45274;SDS011;31019;43.780;25.948;2023-06-10T06:34:36;24.23;;;22.08;;
45274;SDS011;31019;43.780;25.948;2023-06-10T06:37:04;28.98;;;22.08;;
45274;SDS011;31019;43.780;25.948;2023-06-10T06:39:31;21.80;;;19.73;;
45274;SDS011;31019;43.780;25.948;2023-06-10T06:41:58;22.25;;;20.38;;
45274;SDS011;31019;43.780;25.948;2023-06-10T06:44:25;23.52;;;21.55;;
45274;SDS011;31019;43.780;25.948;2023-06-10T06:46:53;24.48;;;22.38;;
45274;SDS011;31019;43.780;25.948;2023-06-10T06:49:21;23.77;;;21.63;;
45274;SDS011;31019;43.780;25.948;2023-06-10T06:51:48;23.05;;;20.85;;
45274;SDS011;31019;43.780;25.948;2023-06-10T06:54:15;24.02;;;22.10;;
45274;SDS011;31019;43.780;25.948;2023-06-10T06:56:41;22.85;;;21.00;;
45274;SDS011;31019;43.780;25.948;2023-06-10T06:59:09;22.70;;;20.40;;
45274;SDS011;31019;43.780;25.948;2023-06-10T07:01:39;29.33;;;21.98;;
45274;SDS011;31019;43.780;25.948;2023-06-10T07:04:19;26.02;;;21.65;;
45274;SDS011;31019;43.780;25.948;2023-06-10T07:06:48;22.92;;;21.13;;
45274;SDS011;31019;43.780;25.948;2023-06-10T07:11:53;24.35;;;22.35;;
45274;SDS011;31019;43.780;25.948;2023-06-10T07:14:20;23.02;;;21.02;;
45274;SDS011;31019;43.780;25.948;2023-06-10T07:16:49;23.58;;;21.08;;
45274;SDS011;31019;43.780;25.948;2023-06-10T07:19:27;23.20;;;21.08;;
45274;SDS011;31019;43.780;25.948;2023-06-10T07:21:53;23.73;;;21.27;;
45274;SDS011;31019;43.780;25.948;2023-06-10T07:24:27;23.90;;;21.83;;
45274;SDS011;31019;43.780;25.948;2023-06-10T07:27:05;23.42;;;21.42;;
45274;SDS011;31019;43.780;25.948;2023-06-10T07:29:32;24.63;;;22.50;;
45274;SDS011;31019;43.780;25.948;2023-06-10T07:32:01;24.33;;;22.23;;
45274;SDS011;31019;43.780;25.948;2023-06-10T07:34:29;25.98;;;23.65;;
45274;SDS011;31019;43.780;25.948;2023-06-10T07:36:56;23.52;;;21.38;;
45274;SDS011;31019;43.780;25.948;2023-06-10T07:39:25;23.60;;;21.48;;
45274;SDS011;31019;43.780;25.948;2023-06-10T07:41:52;25.13;;;22.92;;
45274;SDS011;31019;43.780;25.948;2023-06-10T07:44:29;25.40;;;22.98;;
45274;SDS011;31019;43.780;25.948;2023-06-10T07:46:57;26.65;;;24.05;;
45274;SDS011;31019;43.780;25.948;2023-06-10T07:49:31;26.13;;;23.63;;
45274;SDS011;31019;43.780;25.948;2023-06-10T07:52:06;25.05;;;22.88;;
45274;SDS011;31019;43.780;25.948;2023-06-10T07:54:40;25.15;;;22.77;;
45274;SDS011;31019;43.780;25.948;2023-06-10T07:57:07;23.88;;;21.92;;
45274;SDS011;31019;43.780;25.948;2023-06-10T07:59:34;25.20;;;22.98;;
45274;SDS011;31019;43.780;25.948;2023-06-10T08:04:49;25.23;;;22.70;;
45274;SDS011;31019;43.780;25.948;2023-06-10T08:07:15;24.98;;;22.77;;
45274;SDS011;31019;43.780;25.948;2023-06-10T08:09:43;25.48;;;23.27;;
45274;SDS011;31019;43.780;25.948;2023-06-10T08:12:12;23.92;;;21.75;;
45274;SDS011;31019;43.780;25.948;2023-06-10T08:14:39;25.73;;;23.40;;
45274;SDS011;31019;43.780;25.948;2023-06-10T08:17:05;24.88;;;22.63;;
45274;SDS011;31019;43.780;25.948;2023-06-10T08:19:35;25.10;;;22.73;;
45274;SDS011;31019;43.780;25.948;2023-06-10T08:22:04;24.38;;;21.67;;
45274;SDS011;31019;43.780;25.948;2023-06-10T08:24:31;24.63;;;22.55;;
45274;SDS011;31019;43.780;25.948;2023-06-10T08:27:02;24.27;;;22.08;;
45274;SDS011;31019;43.780;25.948;2023-06-10T08:29:29;24.27;;;22.20;;
45274;SDS011;31019;43.780;25.948;2023-06-10T08:31:57;23.98;;;21.85;;
45274;SDS011;31019;43.780;25.948;2023-06-10T08:34:24;24.80;;;22.70;;
45274;SDS011;31019;43.780;25.948;2023-06-10T08:36:51;23.70;;;21.67;;
45274;SDS011;31019;43.780;25.948;2023-06-10T08:39:21;24.80;;;22.42;;
45274;SDS011;31019;43.780;25.948;2023-06-10T08:41:50;25.80;;;23.50;;
45274;SDS011;31019;43.780;25.948;2023-06-10T08:44:27;26.55;;;23.90;;
45274;SDS011;31019;43.780;25.948;2023-06-10T08:46:55;24.98;;;22.77;;
45274;SDS011;31019;43.780;25.948;2023-06-10T08:49:26;25.25;;;22.83;;
45274;SDS011;31019;43.780;25.948;2023-06-10T08:51:59;23.27;;;21.20;;
45274;SDS011;31019;43.780;25.948;2023-06-10T08:54:30;23.42;;;21.38;;
45274;SDS011;31019;43.780;25.948;2023-06-10T08:56:59;23.42;;;21.27;;
45274;SDS011;31019;43.780;25.948;2023-06-10T08:59:30;23.17;;;20.88;;
45274;SDS011;31019;43.780;25.948;2023-06-10T09:01:58;22.67;;;20.50;;
45274;SDS011;31019;43.780;25.948;2023-06-10T09:04:29;24.77;;;22.50;;
45274;SDS011;31019;43.780;25.948;2023-06-10T09:06:57;25.05;;;22.85;;
45274;SDS011;31019;43.780;25.948;2023-06-10T09:09:27;27.10;;;24.80;;
45274;SDS011;31019;43.780;25.948;2023-06-10T09:11:56;25.77;;;23.48;;
45274;SDS011;31019;43.780;25.948;2023-06-10T09:14:23;27.27;;;24.92;;
45274;SDS011;31019;43.780;25.948;2023-06-10T09:16:50;25.85;;;23.33;;
45274;SDS011;31019;43.780;25.948;2023-06-10T09:19:17;26.75;;;24.35;;
45274;SDS011;31019;43.780;25.948;2023-06-10T09:21:46;27.00;;;24.30;;
45274;SDS011;31019;43.780;25.948;2023-06-10T09:24:13;25.20;;;22.70;;
45274;SDS011;31019;43.780;25.948;2023-06-10T09:26:42;26.60;;;23.85;;
45274;SDS011;31019;43.780;25.948;2023-06-10T09:29:18;26.05;;;23.58;;
45274;SDS011;31019;43.780;25.948;2023-06-10T09:31:45;26.05;;;23.67;;
45274;SDS011;31019;43.780;25.948;2023-06-10T09:34:12;26.35;;;23.95;;
45274;SDS011;31019;43.780;25.948;2023-06-10T09:36:42;25.80;;;23.50;;
45274;SDS011;31019;43.780;25.948;2023-06-10T09:39:13;25.92;;;23.10;;
45274;SDS011;31019;43.780;25.948;2023-06-10T09:41:44;24.83;;;22.52;;
45274;SDS011;31019;43.780;25.948;2023-06-10T09:44:12;25.33;;;22.98;;
45274;SDS011;31019;43.780;25.948;2023-06-10T09:46:40;25.80;;;23.40;;
45274;SDS011;31019;43.780;25.948;2023-06-10T09:49:10;25.30;;;23.00;;
45274;SDS011;31019;43.780;25.948;2023-06-10T09:51:37;24.67;;;22.05;;
45274;SDS011;31019;43.780;25.948;2023-06-10T09:54:04;25.48;;;23.25;;
45274;SDS011;31019;43.780;25.948;2023-06-10T09:56:34;25.30;;;22.98;;
45274;SDS011;31019;43.780;25.948;2023-06-10T09:59:09;23.98;;;21.63;;
45274;SDS011;31019;43.780;25.948;2023-06-10T10:01:41;22.25;;;20.08;;
45274;SDS011;31019;43.780;25.948;2023-06-10T10:04:22;23.85;;;21.45;;
45274;SDS011;31019;43.780;25.948;2023-06-10T10:06:56;22.60;;;20.70;;
45274;SDS011;31019;43.780;25.948;2023-06-10T10:09:32;23.00;;;20.90;;
45274;SDS011;31019;43.780;25.948;2023-06-10T10:12:12;22.30;;;20.17;;
45274;SDS011;31019;43.780;25.948;2023-06-10T10:14:43;24.05;;;21.13;;
45274;SDS011;31019;43.780;25.948;2023-06-10T10:17:14;22.95;;;20.70;;
45274;SDS011;31019;43.780;25.948;2023-06-10T10:19:43;22.23;;;20.38;;
45274;SDS011;31019;43.780;25.948;2023-06-10T10:22:15;22.83;;;20.85;;
45274;SDS011;31019;43.780;25.948;2023-06-10T10:24:47;23.05;;;21.00;;
45274;SDS011;31019;43.780;25.948;2023-06-10T10:27:25;22.08;;;20.27;;
45274;SDS011;31019;43.780;25.948;2023-06-10T10:29:57;22.67;;;20.48;;
45274;SDS011;31019;43.780;25.948;2023-06-10T10:32:26;23.67;;;21.60;;
45274;SDS011;31019;43.780;25.948;2023-06-10T10:35:01;23.65;;;21.55;;
45274;SDS011;31019;43.780;25.948;2023-06-10T10:37:33;23.92;;;21.73;;
45274;SDS011;31019;43.780;25.948;2023-06-10T10:40:13;24.48;;;22.58;;
45274;SDS011;31019;43.780;25.948;2023-06-10T10:42:41;27.15;;;24.60;;
45274;SDS011;31019;43.780;25.948;2023-06-10T10:45:10;23.83;;;21.70;;
45274;SDS011;31019;43.780;25.948;2023-06-10T10:50:30;23.25;;;21.05;;
45274;SDS011;31019;43.780;25.948;2023-06-10T10:52:58;24.08;;;22.13;;
45274;SDS011;31019;43.780;25.948;2023-06-10T10:55:26;23.42;;;21.08;;
45274;SDS011;31019;43.780;25.948;2023-06-10T10:57:54;23.30;;;21.20;;
45274;SDS011;31019;43.780;25.948;2023-06-10T11:02:59;22.35;;;20.38;;
45274;SDS011;31019;43.780;25.948;2023-06-10T11:08:05;22.25;;;20.10;;
45274;SDS011;31019;43.780;25.948;2023-06-10T11:10:34;22.33;;;20.00;;
45274;SDS011;31019;43.780;25.948;2023-06-10T11:13:06;22.73;;;20.38;;
45274;SDS011;31019;43.780;25.948;2023-06-10T11:15:39;24.48;;;20.98;;
45274;SDS011;31019;43.780;25.948;2023-06-10T11:18:19;23.35;;;20.27;;
45274;SDS011;31019;43.780;25.948;2023-06-10T11:20:57;23.05;;;20.88;;
45274;SDS011;31019;43.780;25.948;2023-06-10T11:23:37;22.55;;;20.40;;
45274;SDS011;31019;43.780;25.948;2023-06-10T11:26:09;23.95;;;21.60;;
45274;SDS011;31019;43.780;25.948;2023-06-10T11:34:24;23.00;;;20.75;;
45274;SDS011;31019;43.780;25.948;2023-06-10T11:36:52;22.55;;;20.58;;
45274;SDS011;31019;43.780;25.948;2023-06-10T11:39:20;22.52;;;20.55;;
45274;SDS011;31019;43.780;25.948;2023-06-10T11:41:48;23.20;;;20.80;;
45274;SDS011;31019;43.780;25.948;2023-06-10T11:44:18;22.27;;;20.17;;
45274;SDS011;31019;43.780;25.948;2023-06-10T11:46:47;23.70;;;20.58;;
45274;SDS011;31019;43.780;25.948;2023-06-10T11:49:14;23.17;;;20.98;;
45274;SDS011;31019;43.780;25.948;2023-06-10T11:51:43;23.92;;;21.67;;
45274;SDS011;31019;43.780;25.948;2023-06-10T11:54:14;23.10;;;21.00;;
45274;SDS011;31019;43.780;25.948;2023-06-10T11:56:42;24.63;;;22.23;;
45274;SDS011;31019;43.780;25.948;2023-06-10T11:59:09;25.75;;;23.52;;
45274;SDS011;31019;43.780;25.948;2023-06-10T12:01:37;23.90;;;21.73;;
45274;SDS011;31019;43.780;25.948;2023-06-10T12:04:09;24.10;;;21.77;;
45274;SDS011;31019;43.780;25.948;2023-06-10T12:06:38;24.70;;;22.27;;
45274;SDS011;31019;43.780;25.948;2023-06-10T12:09:06;24.73;;;22.70;;
45274;SDS011;31019;43.780;25.948;2023-06-10T12:11:33;23.70;;;21.27;;
45274;SDS011;31019;43.780;25.948;2023-06-10T12:14:01;25.67;;;23.42;;
45274;SDS011;31019;43.780;25.948;2023-06-10T12:16:28;26.23;;;24.10;;
45274;SDS011;31019;43.780;25.948;2023-06-10T12:19:00;25.10;;;22.70;;
45274;SDS011;31019;43.780;25.948;2023-06-10T12:21:30;25.30;;;23.13;;
45274;SDS011;31019;43.780;25.948;2023-06-10T12:24:07;24.75;;;22.75;;
45274;SDS011;31019;43.780;25.948;2023-06-10T12:26:44;24.60;;;22.48;;
45274;SDS011;31019;43.780;25.948;2023-06-10T12:29:17;25.77;;;23.50;;
45274;SDS011;31019;43.780;25.948;2023-06-10T12:31:55;26.00;;;23.80;;
45274;SDS011;31019;43.780;25.948;2023-06-10T12:34:34;24.80;;;22.70;;
45274;SDS011;31019;43.780;25.948;2023-06-10T12:37:04;24.23;;;22.23;;
45274;SDS011;31019;43.780;25.948;2023-06-10T12:39:50;24.50;;;22.35;;
45274;SDS011;31019;43.780;25.948;2023-06-10T12:42:21;25.02;;;22.50;;
45274;SDS011;31019;43.780;25.948;2023-06-10T12:44:52;23.33;;;21.30;;
45274;SDS011;31019;43.780;25.948;2023-06-10T12:47:20;23.27;;;21.02;;
45274;SDS011;31019;43.780;25.948;2023-06-10T12:49:57;24.40;;;22.10;;
45274;SDS011;31019;43.780;25.948;2023-06-10T12:52:27;23.85;;;21.70;;
45274;SDS011;31019;43.780;25.948;2023-06-10T12:54:54;22.75;;;20.58;;
45274;SDS011;31019;43.780;25.948;2023-06-10T12:57:22;23.58;;;21.00;;
45274;SDS011;31019;43.780;25.948;2023-06-10T12:59:49;23.38;;;21.23;;
45274;SDS011;31019;43.780;25.948;2023-06-10T13:02:17;25.23;;;22.73;;
45274;SDS011;31019;43.780;25.948;2023-06-10T13:04:46;24.15;;;22.05;;
45274;SDS011;31019;43.780;25.948;2023-06-10T13:07:13;23.65;;;21.52;;
45274;SDS011;31019;43.780;25.948;2023-06-10T13:09:44;23.70;;;21.60;;
45274;SDS011;31019;43.780;25.948;2023-06-10T13:12:13;25.38;;;22.95;;
45274;SDS011;31019;43.780;25.948;2023-06-10T13:14:42;24.50;;;22.33;;
45274;SDS011;31019;43.780;25.948;2023-06-10T13:17:09;24.30;;;22.10;;
45274;SDS011;31019;43.780;25.948;2023-06-10T13:19:36;23.10;;;20.90;;
45274;SDS011;31019;43.780;25.948;2023-06-10T13:22:03;21.88;;;19.75;;
45274;SDS011;31019;43.780;25.948;2023-06-10T13:24:30;22.88;;;21.00;;
45274;SDS011;31019;43.780;25.948;2023-06-10T13:26:58;23.33;;;21.42;;
45274;SDS011;31019;43.780;25.948;2023-06-10T13:29:27;24.25;;;21.98;;
45274;SDS011;31019;43.780;25.948;2023-06-10T13:31:55;23.75;;;21.65;;
45274;SDS011;31019;43.780;25.948;2023-06-10T13:34:22;25.60;;;22.92;;
45274;SDS011;31019;43.780;25.948;2023-06-10T13:36:49;24.33;;;21.95;;
45274;SDS011;31019;43.780;25.948;2023-06-10T13:39:16;22.75;;;20.70;;
45274;SDS011;31019;43.780;25.948;2023-06-10T13:41:43;23.48;;;20.98;;
45274;SDS011;31019;43.780;25.948;2023-06-10T13:44:11;25.20;;;22.73;;
45274;SDS011;31019;43.780;25.948;2023-06-10T13:46:38;25.17;;;22.55;;
45274;SDS011;31019;43.780;25.948;2023-06-10T13:49:05;22.95;;;20.73;;
45274;SDS011;31019;43.780;25.948;2023-06-10T13:51:32;22.70;;;20.33;;
45274;SDS011;31019;43.780;25.948;2023-06-10T13:54:04;22.55;;;20.33;;
45274;SDS011;31019;43.780;25.948;2023-06-10T13:56:31;23.27;;;21.00;;
45274;SDS011;31019;43.780;25.948;2023-06-10T13:59:03;25.53;;;21.97;;
45274;SDS011;31019;43.780;25.948;2023-06-10T14:01:31;23.67;;;21.27;;
45274;SDS011;31019;43.780;25.948;2023-06-10T14:03:58;24.70;;;22.35;;
45274;SDS011;31019;43.780;25.948;2023-06-10T14:06:25;26.90;;;24.55;;
45274;SDS011;31019;43.780;25.948;2023-06-10T14:08:53;24.33;;;22.08;;
45274;SDS011;31019;43.780;25.948;2023-06-10T14:11:21;25.98;;;22.90;;
45274;SDS011;31019;43.780;25.948;2023-06-10T14:13:48;24.08;;;21.67;;
45274;SDS011;31019;43.780;25.948;2023-06-10T14:16:15;24.10;;;21.98;;
45274;SDS011;31019;43.780;25.948;2023-06-10T14:18:43;25.17;;;23.02;;
45274;SDS011;31019;43.780;25.948;2023-06-10T14:21:10;24.73;;;22.52;;
45274;SDS011;31019;43.780;25.948;2023-06-10T14:23:37;24.75;;;22.63;;
45274;SDS011;31019;43.780;25.948;2023-06-10T14:26:04;23.98;;;21.77;;
45274;SDS011;31019;43.780;25.948;2023-06-10T14:28:32;24.00;;;21.92;;
45274;SDS011;31019;43.780;25.948;2023-06-10T14:30:59;25.70;;;23.10;;
45274;SDS011;31019;43.780;25.948;2023-06-10T14:33:26;25.58;;;22.90;;
45274;SDS011;31019;43.780;25.948;2023-06-10T14:35:54;26.25;;;23.52;;
45274;SDS011;31019;43.780;25.948;2023-06-10T14:38:21;29.17;;;26.42;;
45274;SDS011;31019;43.780;25.948;2023-06-10T14:40:48;27.92;;;25.52;;
45274;SDS011;31019;43.780;25.948;2023-06-10T14:43:15;25.80;;;23.38;;
45274;SDS011;31019;43.780;25.948;2023-06-10T14:45:42;25.75;;;23.33;;
45274;SDS011;31019;43.780;25.948;2023-06-10T14:48:08;26.05;;;23.95;;
45274;SDS011;31019;43.780;25.948;2023-06-10T14:50:36;25.63;;;23.25;;
45274;SDS011;31019;43.780;25.948;2023-06-10T14:53:07;23.90;;;21.70;;
45274;SDS011;31019;43.780;25.948;2023-06-10T14:55:33;26.30;;;24.00;;